sensor_id;sensor_type;location;lat;lon;timestamp;pressure;altitude;pressure_sealevel;temperature;humidity
40155;BME280;25875;48.202;16.334;2023-04-25T00:00:43;98357.72;;;10.55;60.45
40155;BME280;25875;48.202;16.334;2023-04-25T00:03:09;98358.44;;;10.57;60.28
40155;BME280;25875;48.202;16.334;2023-04-25T00:05:36;98368.00;;;10.59;60.37
40155;BME280;25875;48.202;16.334;2023-04-25T00:08:05;98365.22;;;10.61;59.91
40155;BME280;25875;48.202;16.334;2023-04-25T00:10:32;98368.84;;;10.60;60.05
40155;BME280;25875;48.202;16.334;2023-04-25T00:12:59;98364.50;;;10.59;60.02
40155;BME280;25875;48.202;16.334;2023-04-25T00:15:27;98364.72;;;10.56;60.18
40155;BME280;25875;48.202;16.334;2023-04-25T00:17:56;98365.88;;;10.52;60.30
40155;BME280;25875;48.202;16.334;2023-04-25T00:20:22;98366.84;;;10.51;60.30
40155;BME280;25875;48.202;16.334;2023-04-25T00:22:50;98372.13;;;10.51;60.21
40155;BME280;25875;48.202;16.334;2023-04-25T00:25:19;98244.06;;;9.77;60.06
40155;BME280;25875;48.202;16.334;2023-04-25T00:27:46;98361.66;;;10.49;60.09
40155;BME280;25875;48.202;16.334;2023-04-25T00:30:14;98352.84;;;10.49;60.02
40155;BME280;25875;48.202;16.334;2023-04-25T00:32:41;98357.31;;;10.48;60.14
40155;BME280;25875;48.202;16.334;2023-04-25T00:35:08;98355.81;;;10.44;60.13
40155;BME280;25875;48.202;16.334;2023-04-25T00:37:35;98354.25;;;10.42;60.30
40155;BME280;25875;48.202;16.334;2023-04-25T00:40:05;98355.94;;;10.43;60.19
40155;BME280;25875;48.202;16.334;2023-04-25T00:42:35;98344.72;;;10.39;60.09
40155;BME280;25875;48.202;16.334;2023-04-25T00:45:04;98346.63;;;10.37;60.00
40155;BME280;25875;48.202;16.334;2023-04-25T00:47:32;98343.13;;;10.37;60.19
40155;BME280;25875;48.202;16.334;2023-04-25T00:49:59;98351.06;;;10.37;60.09
40155;BME280;25875;48.202;16.334;2023-04-25T00:52:26;98357.44;;;10.34;60.16
40155;BME280;25875;48.202;16.334;2023-04-25T00:54:53;98356.56;;;10.34;59.99
40155;BME280;25875;48.202;16.334;2023-04-25T00:57:20;98357.63;;;10.31;60.09
40155;BME280;25875;48.202;16.334;2023-04-25T00:59:51;98350.66;;;10.30;60.05
40155;BME280;25875;48.202;16.334;2023-04-25T01:02:18;98326.81;;;10.17;60.28
40155;BME280;25875;48.202;16.334;2023-04-25T01:04:46;98360.28;;;10.31;60.13
40155;BME280;25875;48.202;16.334;2023-04-25T01:07:13;98360.50;;;10.28;59.47
40155;BME280;25875;48.202;16.334;2023-04-25T01:09:41;98352.56;;;10.28;59.96
40155;BME280;25875;48.202;16.334;2023-04-25T01:12:08;98352.66;;;10.26;60.08
40155;BME280;25875;48.202;16.334;2023-04-25T01:14:35;98357.09;;;10.26;59.89
40155;BME280;25875;48.202;16.334;2023-04-25T01:17:03;98357.09;;;10.26;60.04
40155;BME280;25875;48.202;16.334;2023-04-25T01:19:30;98357.09;;;10.26;59.93
40155;BME280;25875;48.202;16.334;2023-04-25T01:21:58;98357.97;;;10.26;59.74
40155;BME280;25875;48.202;16.334;2023-04-25T01:24:26;98345.66;;;10.25;59.67
40155;BME280;25875;48.202;16.334;2023-04-25T01:26:53;98349.38;;;10.23;59.78
40155;BME280;25875;48.202;16.334;2023-04-25T01:29:22;98349.38;;;10.23;59.92
40155;BME280;25875;48.202;16.334;2023-04-25T01:31:51;98351.91;;;10.24;59.99
40155;BME280;25875;48.202;16.334;2023-04-25T01:34:18;98344.94;;;10.23;59.74
40155;BME280;25875;48.202;16.334;2023-04-25T01:36:47;98234.84;;;9.57;59.65
40155;BME280;25875;48.202;16.334;2023-04-25T01:39:16;98345.78;;;10.24;60.05
40155;BME280;25875;48.202;16.334;2023-04-25T01:41:43;98334.44;;;10.22;59.61
40155;BME280;25875;48.202;16.334;2023-04-25T01:44:12;98332.97;;;10.18;59.75
40155;BME280;25875;48.202;16.334;2023-04-25T01:46:39;98350.66;;;10.17;59.70
40155;BME280;25875;48.202;16.334;2023-04-25T01:49:06;98347.91;;;10.19;59.90
40155;BME280;25875;48.202;16.334;2023-04-25T01:51:33;98349.50;;;10.21;59.67
40155;BME280;25875;48.202;16.334;2023-04-25T01:54:00;98350.22;;;10.23;59.33
40155;BME280;25875;48.202;16.334;2023-04-25T01:56:31;98350.44;;;10.20;58.88
40155;BME280;25875;48.202;16.334;2023-04-25T01:58:59;98338.25;;;10.18;59.28
40155;BME280;25875;48.202;16.334;2023-04-25T02:01:26;98341.75;;;10.18;59.42
40155;BME280;25875;48.202;16.334;2023-04-25T02:03:52;98347.06;;;10.18;59.35
40155;BME280;25875;48.202;16.334;2023-04-25T02:06:20;98337.72;;;10.13;59.30
40155;BME280;25875;48.202;16.334;2023-04-25T02:08:47;98349.69;;;10.18;59.26
40155;BME280;25875;48.202;16.334;2023-04-25T02:11:14;98348.84;;;10.18;59.36
40155;BME280;25875;48.202;16.334;2023-04-25T02:13:42;98340.91;;;10.18;59.24
40155;BME280;25875;48.202;16.334;2023-04-25T02:16:09;98342.59;;;10.19;59.26
40155;BME280;25875;48.202;16.334;2023-04-25T02:18:35;98343.78;;;10.15;59.29
40155;BME280;25875;48.202;16.334;2023-04-25T02:21:02;98343.97;;;10.12;59.38
40155;BME280;25875;48.202;16.334;2023-04-25T02:23:29;98330.00;;;10.10;59.64
40155;BME280;25875;48.202;16.334;2023-04-25T02:25:56;98322.28;;;10.07;59.54
40155;BME280;25875;48.202;16.334;2023-04-25T02:28:23;98335.31;;;10.10;59.59
40155;BME280;25875;48.202;16.334;2023-04-25T02:30:52;98342.50;;;10.08;59.36
40155;BME280;25875;48.202;16.334;2023-04-25T02:33:19;98337.31;;;10.06;59.51
40155;BME280;25875;48.202;16.334;2023-04-25T02:35:46;98345.25;;;10.06;59.69
40155;BME280;25875;48.202;16.334;2023-04-25T02:38:13;98339.44;;;10.01;59.67
40155;BME280;25875;48.202;16.334;2023-04-25T02:40:40;98344.84;;;10.00;59.70
40155;BME280;25875;48.202;16.334;2023-04-25T02:43:07;98341.34;;;9.99;59.79
40155;BME280;25875;48.202;16.334;2023-04-25T02:45:34;98331.81;;;9.97;59.80
40155;BME280;25875;48.202;16.334;2023-04-25T02:48:02;98333.81;;;9.93;59.88
40155;BME280;25875;48.202;16.334;2023-04-25T02:50:28;98330.53;;;9.89;59.87
40155;BME280;25875;48.202;16.334;2023-04-25T02:52:55;98310.19;;;9.77;59.88
40155;BME280;25875;48.202;16.334;2023-04-25T02:55:22;98260.88;;;9.51;59.69
40155;BME280;25875;48.202;16.334;2023-04-25T02:57:49;98325.56;;;9.85;59.78
40155;BME280;25875;48.202;16.334;2023-04-25T03:00:16;98321.97;;;9.86;59.74
40155;BME280;25875;48.202;16.334;2023-04-25T03:02:42;98317.50;;;9.86;59.94
40155;BME280;25875;48.202;16.334;2023-04-25T03:05:10;98321.09;;;9.85;59.69
40155;BME280;25875;48.202;16.334;2023-04-25T03:07:37;98266.91;;;9.53;59.82
40155;BME280;25875;48.202;16.334;2023-04-25T03:10:06;98288.81;;;9.68;59.46
40155;BME280;25875;48.202;16.334;2023-04-25T03:12:33;98321.84;;;9.87;59.65
40155;BME280;25875;48.202;16.334;2023-04-25T03:14:59;98323.66;;;9.87;59.54
40155;BME280;25875;48.202;16.334;2023-04-25T03:17:26;98287.97;;;9.67;59.58
40155;BME280;25875;48.202;16.334;2023-04-25T03:19:53;98322.69;;;9.88;59.53
40155;BME280;25875;48.202;16.334;2023-04-25T03:22:22;98333.38;;;9.86;59.36
40155;BME280;25875;48.202;16.334;2023-04-25T03:24:49;98320.47;;;9.82;59.53
40155;BME280;25875;48.202;16.334;2023-04-25T03:27:16;98258.69;;;9.30;59.46
40155;BME280;25875;48.202;16.334;2023-04-25T03:29:43;98331.38;;;9.77;59.61
40155;BME280;25875;48.202;16.334;2023-04-25T03:32:09;98336.97;;;9.73;59.69
40155;BME280;25875;48.202;16.334;2023-04-25T03:34:36;98325.53;;;9.72;59.60
40155;BME280;25875;48.202;16.334;2023-04-25T03:37:02;98308.38;;;9.52;59.77
40155;BME280;25875;48.202;16.334;2023-04-25T03:39:31;98330.09;;;9.70;59.75
40155;BME280;25875;48.202;16.334;2023-04-25T03:41:57;98332.84;;;9.69;59.53
40155;BME280;25875;48.202;16.334;2023-04-25T03:44:24;98339.09;;;9.68;59.65
40155;BME280;25875;48.202;16.334;2023-04-25T03:46:51;98335.69;;;9.66;59.72
40155;BME280;25875;48.202;16.334;2023-04-25T03:49:17;98332.19;;;9.65;59.58
40155;BME280;25875;48.202;16.334;2023-04-25T03:51:44;98343.72;;;9.64;59.44
40155;BME280;25875;48.202;16.334;2023-04-25T03:54:11;98339.41;;;9.63;59.52
40155;BME280;25875;48.202;16.334;2023-04-25T03:56:39;98345.00;;;9.58;59.28
40155;BME280;25875;48.202;16.334;2023-04-25T03:59:05;98342.66;;;9.54;59.43
40155;BME280;25875;48.202;16.334;2023-04-25T04:01:33;98345.31;;;9.54;59.44
40155;BME280;25875;48.202;16.334;2023-04-25T04:04:00;98294.63;;;9.20;59.33
40155;BME280;25875;48.202;16.334;2023-04-25T04:06:27;98222.25;;;8.69;59.17
40155;BME280;25875;48.202;16.334;2023-04-25T04:08:54;98358.19;;;9.46;59.31
40155;BME280;25875;48.202;16.334;2023-04-25T04:11:20;98358.28;;;9.44;59.19
40155;BME280;25875;48.202;16.334;2023-04-25T04:13:49;98360.28;;;9.41;59.18
40155;BME280;25875;48.202;16.334;2023-04-25T04:16:16;98358.66;;;9.38;59.06
40155;BME280;25875;48.202;16.334;2023-04-25T04:18:42;98308.81;;;9.05;59.46
40155;BME280;25875;48.202;16.334;2023-04-25T04:21:09;98360.56;;;9.36;59.23
40155;BME280;25875;48.202;16.334;2023-04-25T04:23:36;98365.94;;;9.35;59.25
40155;BME280;25875;48.202;16.334;2023-04-25T04:26:03;98365.75;;;9.38;59.27
40155;BME280;25875;48.202;16.334;2023-04-25T04:28:30;98363.00;;;9.39;59.11
40155;BME280;25875;48.202;16.334;2023-04-25T04:30:58;98366.59;;;9.38;59.10
40155;BME280;25875;48.202;16.334;2023-04-25T04:33:26;98376.44;;;9.36;59.13
40155;BME280;25875;48.202;16.334;2023-04-25T04:35:53;98370.19;;;9.37;59.06
40155;BME280;25875;48.202;16.334;2023-04-25T04:38:21;98372.72;;;9.39;59.25
40155;BME280;25875;48.202;16.334;2023-04-25T04:40:47;98211.97;;;8.38;59.10
40155;BME280;25875;48.202;16.334;2023-04-25T04:43:15;98382.28;;;9.41;58.99
40155;BME280;25875;48.202;16.334;2023-04-25T04:45:42;98370.88;;;9.41;59.00
40155;BME280;25875;48.202;16.334;2023-04-25T04:48:11;98379.66;;;9.41;58.95
40155;BME280;25875;48.202;16.334;2023-04-25T04:50:39;97815.56;;;6.04;58.89
40155;BME280;25875;48.202;16.334;2023-04-25T04:53:07;98367.16;;;9.43;59.04
40155;BME280;25875;48.202;16.334;2023-04-25T04:55:33;98372.38;;;9.45;59.13
40155;BME280;25875;48.202;16.334;2023-04-25T04:58:00;98367.91;;;9.45;58.98
40155;BME280;25875;48.202;16.334;2023-04-25T05:00:27;98371.50;;;9.44;58.87
40155;BME280;25875;48.202;16.334;2023-04-25T05:02:54;98375.09;;;9.43;58.81
40155;BME280;25875;48.202;16.334;2023-04-25T05:05:22;98372.38;;;9.45;58.95
40155;BME280;25875;48.202;16.334;2023-04-25T05:07:49;98375.09;;;9.43;58.85
40155;BME280;25875;48.202;16.334;2023-04-25T05:10:17;98380.59;;;9.40;58.82
40155;BME280;25875;48.202;16.334;2023-04-25T05:12:44;98378.97;;;9.38;58.84
40155;BME280;25875;48.202;16.334;2023-04-25T05:15:11;98372.94;;;9.36;58.84
40155;BME280;25875;48.202;16.334;2023-04-25T05:17:38;98344.47;;;9.12;58.93
40155;BME280;25875;48.202;16.334;2023-04-25T05:20:06;98348.91;;;9.12;59.09
40155;BME280;25875;48.202;16.334;2023-04-25T05:22:35;98122.69;;;7.76;59.10
40155;BME280;25875;48.202;16.334;2023-04-25T05:25:02;98378.28;;;9.21;59.09
40155;BME280;25875;48.202;16.334;2023-04-25T05:27:30;98487.69;;;9.19;59.21
40155;BME280;25875;48.202;16.334;2023-04-25T05:29:56;98375.06;;;9.16;59.28
40155;BME280;25875;48.202;16.334;2023-04-25T05:32:23;98378.44;;;9.18;59.18
40155;BME280;25875;48.202;16.334;2023-04-25T05:34:50;98374.84;;;9.19;59.24
40155;BME280;25875;48.202;16.334;2023-04-25T05:37:18;98374.09;;;9.17;59.21
40155;BME280;25875;48.202;16.334;2023-04-25T05:39:46;98367.03;;;9.18;59.13
40155;BME280;25875;48.202;16.334;2023-04-25T05:42:13;98360.72;;;9.20;59.09
40155;BME280;25875;48.202;16.334;2023-04-25T05:44:39;98358.53;;;9.27;59.07
40155;BME280;25875;48.202;16.334;2023-04-25T05:47:06;98359.16;;;9.30;58.81
40155;BME280;25875;48.202;16.334;2023-04-25T05:49:33;98355.38;;;9.35;58.70
40155;BME280;25875;48.202;16.334;2023-04-25T05:52:00;98357.72;;;9.39;58.60
40155;BME280;25875;48.202;16.334;2023-04-25T05:54:32;98350.47;;;9.43;58.57
40155;BME280;25875;48.202;16.334;2023-04-25T05:57:00;98337.91;;;9.32;58.46
40155;BME280;25875;48.202;16.334;2023-04-25T05:59:27;98362.03;;;9.54;58.02
40155;BME280;25875;48.202;16.334;2023-04-25T06:01:54;98367.94;;;9.58;57.95
40155;BME280;25875;48.202;16.334;2023-04-25T06:04:21;98379.81;;;9.65;57.86
40155;BME280;25875;48.202;16.334;2023-04-25T06:06:48;98361.09;;;9.68;57.61
40155;BME280;25875;48.202;16.334;2023-04-25T06:09:14;98356.97;;;9.77;57.40
40155;BME280;25875;48.202;16.334;2023-04-25T06:11:41;98352.88;;;9.85;57.43
40155;BME280;25875;48.202;16.334;2023-04-25T06:14:12;98357.31;;;9.98;57.34
40155;BME280;25875;48.202;16.334;2023-04-25T06:16:39;98358.19;;;10.11;56.90
40155;BME280;25875;48.202;16.334;2023-04-25T06:19:05;98351.28;;;10.21;56.64
40155;BME280;25875;48.202;16.334;2023-04-25T06:21:32;98356.47;;;10.35;56.31
40155;BME280;25875;48.202;16.334;2023-04-25T06:23:59;98348.41;;;10.49;55.88
40155;BME280;25875;48.202;16.334;2023-04-25T06:26:25;98348.91;;;10.67;55.38
40155;BME280;25875;48.202;16.334;2023-04-25T06:28:52;98346.75;;;10.85;55.25
40155;BME280;25875;48.202;16.334;2023-04-25T06:31:20;98338.94;;;11.07;54.48
40155;BME280;25875;48.202;16.334;2023-04-25T06:33:47;98343.41;;;11.31;54.02
40155;BME280;25875;48.202;16.334;2023-04-25T06:36:14;98256.75;;;11.07;53.42
40155;BME280;25875;48.202;16.334;2023-04-25T06:38:41;98339.13;;;11.87;53.00
40155;BME280;25875;48.202;16.334;2023-04-25T06:41:08;98338.28;;;12.22;52.16
40155;BME280;25875;48.202;16.334;2023-04-25T06:43:35;98330.91;;;12.59;51.40
40155;BME280;25875;48.202;16.334;2023-04-25T06:46:01;98323.63;;;12.94;50.98
40155;BME280;25875;48.202;16.334;2023-04-25T06:48:30;98315.41;;;13.29;49.84
40155;BME280;25875;48.202;16.334;2023-04-25T06:50:56;98312.97;;;13.69;49.22
40155;BME280;25875;48.202;16.334;2023-04-25T06:53:23;98184.31;;;13.27;48.68
40155;BME280;25875;48.202;16.334;2023-04-25T06:55:50;98310.38;;;14.30;48.26
40155;BME280;25875;48.202;16.334;2023-04-25T06:58:16;98303.50;;;14.58;47.80
40155;BME280;25875;48.202;16.334;2023-04-25T07:00:43;98299.25;;;14.86;47.22
40155;BME280;25875;48.202;16.334;2023-04-25T07:03:10;98292.44;;;15.13;46.64
40155;BME280;25875;48.202;16.334;2023-04-25T07:05:38;98290.06;;;15.38;46.40
40155;BME280;25875;48.202;16.334;2023-04-25T07:08:05;98287.66;;;15.55;45.82
40155;BME280;25875;48.202;16.334;2023-04-25T07:10:32;98291.63;;;15.70;45.59
40155;BME280;25875;48.202;16.334;2023-04-25T07:12:59;98288.06;;;15.89;45.40
40155;BME280;25875;48.202;16.334;2023-04-25T07:15:26;98266.81;;;15.97;45.21
40155;BME280;25875;48.202;16.334;2023-04-25T07:17:52;98294.97;;;16.38;44.68
40155;BME280;25875;48.202;16.334;2023-04-25T07:20:19;98281.59;;;16.38;44.27
40155;BME280;25875;48.202;16.334;2023-04-25T07:22:52;98225.41;;;16.11;43.26
40155;BME280;25875;48.202;16.334;2023-04-25T07:25:18;98243.84;;;16.41;44.32
40155;BME280;25875;48.202;16.334;2023-04-25T07:27:45;98274.41;;;16.76;44.21
40155;BME280;25875;48.202;16.334;2023-04-25T07:30:12;98267.38;;;16.92;44.12
40155;BME280;25875;48.202;16.334;2023-04-25T07:32:39;98276.28;;;17.11;43.97
40155;BME280;25875;48.202;16.334;2023-04-25T07:35:07;98229.06;;;16.92;43.61
40155;BME280;25875;48.202;16.334;2023-04-25T07:37:33;98267.81;;;17.33;43.71
40155;BME280;25875;48.202;16.334;2023-04-25T07:40:02;98262.00;;;17.55;42.87
40155;BME280;25875;48.202;16.334;2023-04-25T07:42:30;98264.38;;;17.76;43.06
40155;BME280;25875;48.202;16.334;2023-04-25T07:44:57;98265.31;;;17.93;42.77
40155;BME280;25875;48.202;16.334;2023-04-25T07:47:24;98261.22;;;18.07;42.27
40155;BME280;25875;48.202;16.334;2023-04-25T07:49:51;98192.38;;;17.81;42.03
40155;BME280;25875;48.202;16.334;2023-04-25T07:52:17;98258.84;;;18.30;41.58
40155;BME280;25875;48.202;16.334;2023-04-25T07:54:44;98260.69;;;18.29;41.75
40155;BME280;25875;48.202;16.334;2023-04-25T07:57:14;98131.88;;;17.53;41.23
40155;BME280;25875;48.202;16.334;2023-04-25T07:59:43;98247.34;;;18.45;41.70
40155;BME280;25875;48.202;16.334;2023-04-25T08:02:10;98151.47;;;18.05;41.16
40155;BME280;25875;48.202;16.334;2023-04-25T08:04:36;98243.13;;;18.77;41.14
40155;BME280;25875;48.202;16.334;2023-04-25T08:07:03;98236.28;;;18.90;40.61
40155;BME280;25875;48.202;16.334;2023-04-25T08:09:30;98249.91;;;18.97;40.88
40155;BME280;25875;48.202;16.334;2023-04-25T08:12:00;98245.88;;;19.01;40.82
40155;BME280;25875;48.202;16.334;2023-04-25T08:14:30;98144.06;;;18.49;40.40
40155;BME280;25875;48.202;16.334;2023-04-25T08:17:01;98226.78;;;19.20;40.57
40155;BME280;25875;48.202;16.334;2023-04-25T08:19:28;98229.13;;;19.15;40.50
40155;BME280;25875;48.202;16.334;2023-04-25T08:21:55;98224.91;;;18.97;40.62
40155;BME280;25875;48.202;16.334;2023-04-25T08:24:22;98237.59;;;18.78;40.90
40155;BME280;25875;48.202;16.334;2023-04-25T08:26:49;98230.19;;;18.72;41.21
40155;BME280;25875;48.202;16.334;2023-04-25T08:29:15;98175.53;;;18.31;40.99
40155;BME280;25875;48.202;16.334;2023-04-25T08:31:43;98220.44;;;18.63;40.36
40155;BME280;25875;48.202;16.334;2023-04-25T08:34:10;98217.47;;;18.74;40.57
40155;BME280;25875;48.202;16.334;2023-04-25T08:36:39;98162.75;;;18.59;39.92
40155;BME280;25875;48.202;16.334;2023-04-25T08:39:05;98219.34;;;18.98;40.12
40155;BME280;25875;48.202;16.334;2023-04-25T08:41:32;98211.31;;;19.06;40.41
40155;BME280;25875;48.202;16.334;2023-04-25T08:43:59;98189.69;;;19.16;39.66
40155;BME280;25875;48.202;16.334;2023-04-25T08:46:27;98208.69;;;19.55;39.62
40155;BME280;25875;48.202;16.334;2023-04-25T08:49:00;98203.28;;;19.71;37.02
40155;BME280;25875;48.202;16.334;2023-04-25T08:51:31;98211.88;;;19.50;37.55
40155;BME280;25875;48.202;16.334;2023-04-25T08:54:08;98203.09;;;19.24;36.97
40155;BME280;25875;48.202;16.334;2023-04-25T08:56:36;98209.13;;;19.02;39.57
40155;BME280;25875;48.202;16.334;2023-04-25T08:59:04;98215.63;;;18.83;40.07
40155;BME280;25875;48.202;16.334;2023-04-25T09:01:33;98139.97;;;18.21;40.62
40155;BME280;25875;48.202;16.334;2023-04-25T09:04:02;98175.16;;;18.18;40.69
40155;BME280;25875;48.202;16.334;2023-04-25T09:06:30;98226.34;;;18.33;40.98
40155;BME280;25875;48.202;16.334;2023-04-25T09:09:02;98224.84;;;18.04;39.63
40155;BME280;25875;48.202;16.334;2023-04-25T09:11:30;98230.75;;;17.82;41.01
40155;BME280;25875;48.202;16.334;2023-04-25T09:14:10;98224.50;;;17.55;38.67
40155;BME280;25875;48.202;16.334;2023-04-25T09:16:57;98225.97;;;17.32;38.65
40155;BME280;25875;48.202;16.334;2023-04-25T09:19:27;98235.59;;;17.07;41.82
40155;BME280;25875;48.202;16.334;2023-04-25T09:21:56;98238.25;;;16.89;43.16
40155;BME280;25875;48.202;16.334;2023-04-25T09:24:33;98235.00;;;16.68;42.40
40155;BME280;25875;48.202;16.334;2023-04-25T09:27:03;98251.28;;;16.47;43.71
40155;BME280;25875;48.202;16.334;2023-04-25T09:29:31;98263.00;;;16.36;44.23
40155;BME280;25875;48.202;16.334;2023-04-25T09:32:11;98245.84;;;16.02;42.44
40155;BME280;25875;48.202;16.334;2023-04-25T09:34:41;98276.53;;;15.88;44.43
40155;BME280;25875;48.202;16.334;2023-04-25T09:37:09;98263.06;;;15.42;45.49
40155;BME280;25875;48.202;16.334;2023-04-25T09:39:36;98182.59;;;14.69;45.90
40155;BME280;25875;48.202;16.334;2023-04-25T09:42:04;98239.59;;;14.87;46.74
40155;BME280;25875;48.202;16.334;2023-04-25T09:44:31;98289.03;;;15.01;46.95
40155;BME280;25875;48.202;16.334;2023-04-25T09:46:57;98275.97;;;14.88;47.16
40155;BME280;25875;48.202;16.334;2023-04-25T09:49:25;98278.03;;;14.75;46.84
40155;BME280;25875;48.202;16.334;2023-04-25T09:51:58;98279.59;;;14.57;45.31
40155;BME280;25875;48.202;16.334;2023-04-25T09:54:26;98284.06;;;14.47;45.90
40155;BME280;25875;48.202;16.334;2023-04-25T09:56:53;98178.59;;;13.73;45.93
40155;BME280;25875;48.202;16.334;2023-04-25T09:59:20;98275.03;;;14.28;46.21
40155;BME280;25875;48.202;16.334;2023-04-25T10:01:49;98282.56;;;14.23;46.08
40155;BME280;25875;48.202;16.334;2023-04-25T10:04:19;98282.13;;;14.18;45.64
40155;BME280;25875;48.202;16.334;2023-04-25T10:06:48;98279.00;;;14.13;45.60
40155;BME280;25875;48.202;16.334;2023-04-25T10:09:19;98274.66;;;14.12;45.69
40155;BME280;25875;48.202;16.334;2023-04-25T10:11:47;98280.56;;;14.16;45.82
40155;BME280;25875;48.202;16.334;2023-04-25T10:14:14;98283.94;;;14.18;45.43
40155;BME280;25875;48.202;16.334;2023-04-25T10:16:41;98278.03;;;14.14;45.48
40155;BME280;25875;48.202;16.334;2023-04-25T10:19:09;98279.28;;;14.10;45.53
40155;BME280;25875;48.202;16.334;2023-04-25T10:21:48;98285.84;;;14.06;45.19
40155;BME280;25875;48.202;16.334;2023-04-25T10:24:17;98251.56;;;13.92;45.69
40155;BME280;25875;48.202;16.334;2023-04-25T10:26:46;98274.25;;;14.17;45.46
40155;BME280;25875;48.202;16.334;2023-04-25T10:29:21;98270.63;;;14.18;44.76
40155;BME280;25875;48.202;16.334;2023-04-25T10:31:49;98264.88;;;14.22;45.19
40155;BME280;25875;48.202;16.334;2023-04-25T10:34:16;98253.97;;;14.25;44.60
40155;BME280;25875;48.202;16.334;2023-04-25T10:36:49;98250.84;;;14.20;43.73
40155;BME280;25875;48.202;16.334;2023-04-25T10:39:23;98244.97;;;14.17;44.32
40155;BME280;25875;48.202;16.334;2023-04-25T10:41:55;98236.53;;;14.11;44.04
40155;BME280;25875;48.202;16.334;2023-04-25T10:44:22;98216.28;;;13.99;44.59
40155;BME280;25875;48.202;16.334;2023-04-25T10:46:49;98231.63;;;14.17;44.35
40155;BME280;25875;48.202;16.334;2023-04-25T10:49:29;98229.00;;;14.26;43.22
40155;BME280;25875;48.202;16.334;2023-04-25T10:52:14;98226.41;;;14.45;43.09
40155;BME280;25875;48.202;16.334;2023-04-25T10:54:46;98136.13;;;14.12;43.36
40155;BME280;25875;48.202;16.334;2023-04-25T10:57:35;98203.25;;;14.86;42.17
40155;BME280;25875;48.202;16.334;2023-04-25T11:00:11;98189.63;;;14.99;42.61
40155;BME280;25875;48.202;16.334;2023-04-25T11:02:41;98196.63;;;15.29;42.72
40155;BME280;25875;48.202;16.334;2023-04-25T11:05:09;98028.56;;;14.52;42.69
40155;BME280;25875;48.202;16.334;2023-04-25T11:07:39;98196.28;;;15.61;42.08
40155;BME280;25875;48.202;16.334;2023-04-25T11:10:12;98173.75;;;15.83;42.24
40155;BME280;25875;48.202;16.334;2023-04-25T11:12:40;98123.88;;;15.74;42.24
40155;BME280;25875;48.202;16.334;2023-04-25T11:15:08;98160.22;;;16.21;41.51
40155;BME280;25875;48.202;16.334;2023-04-25T11:17:35;98167.16;;;16.42;41.15
40155;BME280;25875;48.202;16.334;2023-04-25T11:20:02;98114.25;;;15.90;40.34
40155;BME280;25875;48.202;16.334;2023-04-25T11:22:36;98149.38;;;16.23;39.29
40155;BME280;25875;48.202;16.334;2023-04-25T11:25:07;98120.44;;;15.91;39.86
40155;BME280;25875;48.202;16.334;2023-04-25T11:27:39;98199.72;;;16.27;40.09
40155;BME280;25875;48.202;16.334;2023-04-25T11:30:15;97750.50;;;13.09;41.32
40155;BME280;25875;48.202;16.334;2023-04-25T11:32:42;98273.88;;;15.59;42.87
40155;BME280;25875;48.202;16.334;2023-04-25T11:35:09;98279.78;;;15.05;44.18
40155;BME280;25875;48.202;16.334;2023-04-25T11:37:38;98300.22;;;14.55;45.92
40155;BME280;25875;48.202;16.334;2023-04-25T11:40:06;98317.81;;;14.06;47.03
40155;BME280;25875;48.202;16.334;2023-04-25T11:42:38;98121.13;;;12.46;48.27
40155;BME280;25875;48.202;16.334;2023-04-25T11:45:06;98298.06;;;13.46;49.07
40155;BME280;25875;48.202;16.334;2023-04-25T11:47:33;98303.53;;;13.33;49.60
40155;BME280;25875;48.202;16.334;2023-04-25T11:50:01;98296.19;;;13.26;49.29
40155;BME280;25875;48.202;16.334;2023-04-25T11:52:36;98294.03;;;13.20;49.94
40155;BME280;25875;48.202;16.334;2023-04-25T11:55:04;98290.81;;;13.05;50.65
40155;BME280;25875;48.202;16.334;2023-04-25T11:57:32;98235.09;;;12.60;49.85
40155;BME280;25875;48.202;16.334;2023-04-25T12:00:11;98306.56;;;12.97;50.50
40155;BME280;25875;48.202;16.334;2023-04-25T12:02:41;98292.53;;;12.95;50.78
40155;BME280;25875;48.202;16.334;2023-04-25T12:05:09;98286.97;;;12.98;50.53
40155;BME280;25875;48.202;16.334;2023-04-25T12:07:36;98289.59;;;13.09;50.20
40155;BME280;25875;48.202;16.334;2023-04-25T12:10:07;98248.13;;;13.06;51.28
40155;BME280;25875;48.202;16.334;2023-04-25T12:12:35;98280.66;;;13.42;50.56
40155;BME280;25875;48.202;16.334;2023-04-25T12:15:10;98164.69;;;12.87;51.74
40155;BME280;25875;48.202;16.334;2023-04-25T12:17:38;98271.47;;;13.67;50.59
40155;BME280;25875;48.202;16.334;2023-04-25T12:20:08;98274.78;;;13.80;50.44
40155;BME280;25875;48.202;16.334;2023-04-25T12:22:35;98239.66;;;13.65;50.39
40155;BME280;25875;48.202;16.334;2023-04-25T12:25:03;98216.84;;;13.72;49.41
40155;BME280;25875;48.202;16.334;2023-04-25T12:27:31;98264.41;;;14.07;49.41
40155;BME280;25875;48.202;16.334;2023-04-25T12:29:59;98208.78;;;13.84;49.17
40155;BME280;25875;48.202;16.334;2023-04-25T12:32:28;98252.59;;;14.31;48.64
40155;BME280;25875;48.202;16.334;2023-04-25T12:34:55;98259.06;;;14.38;48.55
40155;BME280;25875;48.202;16.334;2023-04-25T12:37:22;98246.59;;;14.38;48.26
40155;BME280;25875;48.202;16.334;2023-04-25T12:39:49;98243.78;;;14.40;48.05
40155;BME280;25875;48.202;16.334;2023-04-25T12:42:16;98240.44;;;14.48;47.56
40155;BME280;25875;48.202;16.334;2023-04-25T12:44:42;98246.19;;;14.53;47.35
40155;BME280;25875;48.202;16.334;2023-04-25T12:47:10;98239.88;;;14.54;46.83
40155;BME280;25875;48.202;16.334;2023-04-25T12:49:38;98244.25;;;14.55;46.82
40155;BME280;25875;48.202;16.334;2023-04-25T12:52:05;98266.13;;;14.49;46.52
40155;BME280;25875;48.202;16.334;2023-04-25T12:54:31;98246.00;;;14.35;46.33
40155;BME280;25875;48.202;16.334;2023-04-25T12:56:58;98231.81;;;14.25;46.41